Time;durP1;ratioP1;P1;durP2;ratioP2;P2;SDS_P1;SDS_P2;PMS_P1;PMS_P2;Temp;Humidity;BMP_temperature;BMP_pressure;BME280_temperature;BME280_humidity;BME280_pressure;Samples;Min_cycle;Max_cycle;Signal;HPM_P1;HPM_P2
2024/01/23 00:01:11;;;;;;;2.33;1.33;;;6.30;99.90;;;;;;5082611;28;20201;-80
2024/01/23 00:03:38;;;;;;;3.63;1.50;;;6.20;99.90;;;;;;5077436;28;20193;-80
2024/01/23 00:06:05;;;;;;;2.55;1.08;;;6.40;99.90;;;;;;5086558;28;20208;-80
2024/01/23 00:08:32;;;;;;;3.08;1.33;;;6.60;99.90;;;;;;5086095;28;20621;-79
2024/01/23 00:11:00;;;;;;;5.15;1.35;;;6.50;99.90;;;;;;5085219;28;20645;-80
2024/01/23 00:13:27;;;;;;;2.90;1.40;;;6.60;99.90;;;;;;5077070;28;20219;-80
2024/01/23 00:15:53;;;;;;;1.85;1.02;;;6.60;99.90;;;;;;5085865;28;20247;-80
2024/01/23 00:18:20;;;;;;;1.30;1.17;;;6.70;99.90;;;;;;5086013;28;20188;-80
2024/01/23 00:20:47;;;;;;;2.83;1.38;;;6.60;99.90;;;;;;5084111;28;20193;-82
2024/01/23 00:23:14;;;;;;;3.15;1.17;;;6.60;99.90;;;;;;5080613;28;20208;-80
2024/01/23 00:25:41;;;;;;;3.83;1.40;;;6.60;99.90;;;;;;5083916;28;20204;-79
2024/01/23 00:28:09;;;;;;;4.38;1.55;;;6.70;99.90;;;;;;5082482;28;20205;-79
2024/01/23 00:30:37;;;;;;;2.65;1.20;;;6.80;99.90;;;;;;5075588;28;20715;-79
2024/01/23 00:33:04;;;;;;;3.97;1.10;;;6.80;99.70;;;;;;5086882;28;20223;-80
2024/01/23 00:35:32;;;;;;;3.90;1.20;;;6.90;99.30;;;;;;5086966;28;20339;-80
2024/01/23 00:37:59;;;;;;;3.95;1.23;;;6.90;99.10;;;;;;5080661;28;20205;-79
2024/01/23 00:40:27;;;;;;;1.60;1.20;;;6.90;99.30;;;;;;5083797;28;20205;-80
2024/01/23 00:42:54;;;;;;;2.08;1.30;;;6.90;99.10;;;;;;5062024;28;20231;-80
2024/01/23 00:45:22;;;;;;;4.32;1.45;;;6.90;99.20;;;;;;5080090;28;20209;-84
2024/01/23 00:47:49;;;;;;;1.92;1.30;;;7.00;99.00;;;;;;5079147;28;20208;-80
2024/01/23 00:50:17;;;;;;;3.30;1.33;;;6.90;99.30;;;;;;5087220;28;20192;-80
2024/01/23 00:52:44;;;;;;;3.92;1.17;;;6.90;99.00;;;;;;5092583;28;20674;-80
2024/01/23 00:55:11;;;;;;;2.78;1.10;;;6.90;98.80;;;;;;5078183;28;20216;-80
2024/01/23 00:57:38;;;;;;;2.35;1.15;;;6.90;98.70;;;;;;5078462;28;20220;-80
2024/01/23 01:00:07;;;;;;;3.80;1.40;;;7.00;98.10;;;;;;5075180;28;20216;-80
2024/01/23 01:02:35;;;;;;;1.35;1.10;;;7.10;97.80;;;;;;5078633;28;20200;-79
2024/01/23 01:05:02;;;;;;;2.60;1.40;;;7.10;97.10;;;;;;5078481;28;20228;-81
2024/01/23 01:07:30;;;;;;;1.92;1.10;;;7.10;97.00;;;;;;5079694;28;20603;-80
2024/01/23 01:09:57;;;;;;;3.88;1.20;;;7.00;97.20;;;;;;5080360;28;20232;-80
2024/01/23 01:12:24;;;;;;;4.55;1.30;;;6.90;96.80;;;;;;5079481;28;20667;-79
2024/01/23 01:14:50;;;;;;;3.00;1.50;;;6.90;96.10;;;;;;5072630;28;20654;-79
2024/01/23 01:17:17;;;;;;;2.78;1.20;;;6.80;96.40;;;;;;5082244;28;20235;-81
2024/01/23 01:19:45;;;;;;;3.40;1.25;;;6.80;96.10;;;;;;5082154;28;20196;-79
2024/01/23 01:22:12;;;;;;;2.05;0.98;;;6.80;96.00;;;;;;5087287;28;20200;-84
2024/01/23 01:24:39;;;;;;;2.33;1.00;;;6.90;95.50;;;;;;5085565;28;20192;-79
2024/01/23 01:27:06;;;;;;;2.00;1.25;;;7.00;95.40;;;;;;5084915;28;20212;-80
2024/01/23 01:29:33;;;;;;;2.97;1.20;;;6.90;95.20;;;;;;5078182;28;20220;-76
2024/01/23 01:32:00;;;;;;;2.70;1.17;;;6.90;95.50;;;;;;5085601;28;20197;-79
2024/01/23 01:34:30;;;;;;;2.10;1.37;;;6.90;95.50;;;;;;5079284;28;20201;-81
2024/01/23 01:36:58;;;;;;;2.83;1.42;;;6.80;95.40;;;;;;5084610;28;20225;-79
2024/01/23 01:39:25;;;;;;;2.63;1.10;;;6.60;95.40;;;;;;5077129;28;20193;-79
2024/01/23 01:41:55;;;;;;;2.78;0.93;;;6.50;95.80;;;;;;5077653;28;20651;-79
2024/01/23 01:44:22;;;;;;;2.72;1.23;;;6.50;95.70;;;;;;5084556;28;20233;-80
2024/01/23 01:46:49;;;;;;;1.85;1.25;;;6.30;96.30;;;;;;5083758;28;20275;-79
2024/01/23 01:49:16;;;;;;;5.30;1.23;;;6.20;96.40;;;;;;5077206;28;20661;-80
2024/01/23 01:51:43;;;;;;;2.33;1.10;;;6.20;96.50;;;;;;5078828;28;20196;-79
2024/01/23 01:54:11;;;;;;;2.47;1.27;;;6.20;96.00;;;;;;5079012;28;20205;-80
2024/01/23 01:56:39;;;;;;;2.37;1.00;;;6.10;96.20;;;;;;5072738;28;20232;-79
2024/01/23 01:59:07;;;;;;;2.10;1.10;;;6.00;96.10;;;;;;5082124;28;20197;-79
2024/01/23 02:01:34;;;;;;;3.00;1.48;;;6.10;95.90;;;;;;5084442;28;20926;-79
2024/01/23 02:04:01;;;;;;;2.70;0.97;;;6.00;95.50;;;;;;5086639;28;20255;-79
2024/01/23 02:06:30;;;;;;;4.27;1.57;;;5.90;95.60;;;;;;5075086;28;20556;-79
2024/01/23 02:08:58;;;;;;;2.97;1.30;;;5.90;96.20;;;;;;5081431;28;20200;-79
2024/01/23 02:11:26;;;;;;;2.70;1.17;;;5.90;96.30;;;;;;5084899;28;20193;-79
2024/01/23 02:13:53;;;;;;;1.77;1.20;;;5.80;96.70;;;;;;5085364;28;20593;-79
2024/01/23 02:16:20;;;;;;;2.00;1.20;;;5.70;97.30;;;;;;5086271;28;20875;-78
2024/01/23 02:18:47;;;;;;;2.57;1.30;;;5.70;97.70;;;;;;5085728;28;20193;-79
2024/01/23 02:21:15;;;;;;;2.50;1.17;;;5.80;97.60;;;;;;5083635;28;20197;-79
2024/01/23 02:23:44;;;;;;;3.13;1.43;;;5.80;97.90;;;;;;5080839;28;20664;-79
2024/01/23 02:26:14;;;;;;;1.87;1.00;;;5.80;97.70;;;;;;5069853;28;20211;-79
2024/01/23 02:28:41;;;;;;;1.93;1.33;;;5.80;97.90;;;;;;5078742;28;20205;-79
2024/01/23 02:31:08;;;;;;;4.37;1.10;;;5.80;97.90;;;;;;5083125;28;20203;-81
2024/01/23 02:33:35;;;;;;;3.60;1.30;;;5.80;97.90;;;;;;5082308;28;20556;-79
2024/01/23 02:36:01;;;;;;;2.20;1.10;;;5.70;98.30;;;;;;5084736;28;20232;-85
2024/01/23 02:38:28;;;;;;;5.07;1.37;;;5.80;98.50;;;;;;5086035;28;20193;-79
2024/01/23 02:40:57;;;;;;;3.80;1.20;;;5.70;98.40;;;;;;5079492;28;20212;-79
2024/01/23 02:43:23;;;;;;;3.17;1.03;;;5.70;98.60;;;;;;5081713;28;20193;-80
2024/01/23 02:45:50;;;;;;;2.23;1.33;;;5.70;98.70;;;;;;5084288;28;20205;-80
2024/01/23 02:48:17;;;;;;;3.13;1.23;;;5.80;98.50;;;;;;5089510;28;20203;-79
2024/01/23 02:50:44;;;;;;;3.67;1.20;;;5.70;98.40;;;;;;5081004;28;20649;-79
2024/01/23 02:53:10;;;;;;;3.10;0.97;;;5.70;98.20;;;;;;5087282;28;20208;-78
2024/01/23 02:55:37;;;;;;;2.40;1.23;;;5.90;97.60;;;;;;5085895;28;20205;-78
2024/01/23 02:58:05;;;;;;;3.37;0.97;;;5.90;97.10;;;;;;5089203;28;20315;-78
2024/01/23 03:00:35;;;;;;;3.03;1.10;;;5.90;97.20;;;;;;5080147;28;20220;-79
2024/01/23 03:03:03;;;;;;;2.73;1.07;;;5.80;97.20;;;;;;5090727;28;20200;-78
2024/01/23 03:05:30;;;;;;;4.77;1.30;;;5.70;97.30;;;;;;5088247;28;20216;-78
2024/01/23 03:07:56;;;;;;;3.87;1.07;;;5.70;97.10;;;;;;5089698;28;20204;-79
2024/01/23 03:10:23;;;;;;;1.70;1.20;;;5.80;97.10;;;;;;5072395;28;20220;-79
2024/01/23 03:12:50;;;;;;;2.70;1.17;;;5.80;96.90;;;;;;5080026;28;20201;-78
2024/01/23 03:15:18;;;;;;;3.07;1.40;;;5.70;96.80;;;;;;5082028;28;20208;-78
2024/01/23 03:17:45;;;;;;;1.70;1.30;;;5.60;97.30;;;;;;5084853;28;20215;-78
2024/01/23 03:20:12;;;;;;;2.03;1.20;;;5.60;97.30;;;;;;5087253;28;20284;-78
2024/01/23 03:22:39;;;;;;;5.90;1.27;;;5.60;97.00;;;;;;5088344;28;20208;-78
2024/01/23 03:25:06;;;;;;;3.83;1.27;;;5.70;96.70;;;;;;5087449;28;20200;-79
2024/01/23 03:27:33;;;;;;;2.40;1.07;;;5.60;96.70;;;;;;5081933;28;20279;-79
2024/01/23 03:30:00;;;;;;;1.27;1.07;;;5.60;96.80;;;;;;5080184;28;20197;-78
2024/01/23 03:32:28;;;;;;;4.10;1.10;;;5.70;96.70;;;;;;5079933;28;20204;-79
2024/01/23 03:34:55;;;;;;;2.00;1.00;;;5.80;96.40;;;;;;5084876;28;20515;-79
2024/01/23 03:37:21;;;;;;;2.13;0.97;;;5.80;96.30;;;;;;5090382;28;20224;-78
2024/01/23 03:39:48;;;;;;;3.13;1.37;;;5.70;96.30;;;;;;5088236;28;20669;-78
2024/01/23 03:42:15;;;;;;;2.77;1.20;;;5.80;96.40;;;;;;5078218;28;20449;-82
2024/01/23 03:44:42;;;;;;;2.17;1.10;;;5.80;96.70;;;;;;5096003;28;20578;-78
2024/01/23 03:47:09;;;;;;;2.07;1.00;;;5.80;96.70;;;;;;5082429;28;20208;-78
2024/01/23 03:49:37;;;;;;;2.20;1.17;;;5.90;96.70;;;;;;5078853;28;20198;-78
2024/01/23 03:52:12;;;;;;;2.90;1.30;;;5.80;96.70;;;;;;5088396;28;20200;-78
2024/01/23 03:54:39;;;;;;;2.67;1.70;;;5.80;96.80;;;;;;5081460;28;20192;-79
2024/01/23 03:57:06;;;;;;;2.53;1.10;;;5.70;97.00;;;;;;5082877;28;20225;-77
2024/01/23 03:59:33;;;;;;;3.43;1.27;;;5.80;96.30;;;;;;5086223;28;20674;-76
2024/01/23 04:02:00;;;;;;;3.93;1.10;;;5.90;96.10;;;;;;5081932;28;20222;-76
2024/01/23 04:04:26;;;;;;;2.63;1.30;;;5.80;95.90;;;;;;5082001;28;20865;-77
2024/01/23 04:06:54;;;;;;;4.73;1.43;;;5.80;95.70;;;;;;5082330;28;20226;-77
2024/01/23 04:09:21;;;;;;;4.67;1.30;;;5.70;95.80;;;;;;5081229;28;20197;-79
2024/01/23 04:11:48;;;;;;;2.27;0.90;;;5.70;96.00;;;;;;5078831;28;20200;-78
2024/01/23 04:14:15;;;;;;;2.27;1.20;;;5.60;96.20;;;;;;5081232;28;20203;-77
2024/01/23 04:16:42;;;;;;;2.53;1.20;;;5.50;96.30;;;;;;5078254;28;20221;-77
2024/01/23 04:19:08;;;;;;;3.33;0.97;;;5.50;96.40;;;;;;5086056;28;20196;-77
2024/01/23 04:21:35;;;;;;;2.97;1.13;;;5.60;96.40;;;;;;5078750;28;20193;-79
2024/01/23 04:24:13;;;;;;;2.57;1.23;;;5.50;96.30;;;;;;5080365;28;20201;-77
2024/01/23 04:26:52;;;;;;;3.07;1.40;;;5.60;96.20;;;;;;5083888;28;20209;-78
2024/01/23 04:29:18;;;;;;;4.70;1.33;;;5.60;96.00;;;;;;5078194;28;20216;-77
2024/01/23 04:31:45;;;;;;;3.20;1.27;;;5.60;95.90;;;;;;5078292;28;20205;-77
2024/01/23 04:34:12;;;;;;;6.50;1.50;;;5.60;95.20;;;;;;5082475;28;20206;-78
2024/01/23 04:36:39;;;;;;;3.30;1.43;;;5.70;94.30;;;;;;5074612;28;20217;-77
2024/01/23 04:39:07;;;;;;;1.90;1.30;;;5.70;94.50;;;;;;5083552;28;20200;-78
2024/01/23 04:41:33;;;;;;;4.73;1.30;;;5.70;94.40;;;;;;5082060;28;20201;-78
2024/01/23 04:44:00;;;;;;;3.17;1.40;;;5.70;94.60;;;;;;5086934;28;20200;-77
2024/01/23 04:46:27;;;;;;;2.97;1.40;;;5.70;94.90;;;;;;5076726;28;20201;-79
2024/01/23 04:48:54;;;;;;;4.80;1.30;;;5.60;95.20;;;;;;5078142;28;20723;-77
2024/01/23 04:51:20;;;;;;;4.00;1.27;;;5.60;95.20;;;;;;5087060;28;20652;-78
2024/01/23 04:53:47;;;;;;;4.27;1.30;;;5.60;95.20;;;;;;5081674;28;20200;-77
2024/01/23 04:56:15;;;;;;;6.13;1.50;;;5.60;95.20;;;;;;5095960;28;20200;-78
2024/01/23 04:58:42;;;;;;;5.03;1.40;;;5.60;95.20;;;;;;5087290;28;20221;-78
2024/01/23 05:01:09;;;;;;;4.07;1.50;;;5.50;95.40;;;;;;5084331;28;20196;-82
2024/01/23 05:03:36;;;;;;;2.00;1.30;;;5.30;95.90;;;;;;5080320;28;20204;-78
2024/01/23 05:06:04;;;;;;;2.70;1.40;;;5.40;96.20;;;;;;5077258;28;20496;-77
2024/01/23 05:08:31;;;;;;;3.73;1.47;;;5.30;96.50;;;;;;5079555;28;20193;-77
2024/01/23 05:10:58;;;;;;;4.03;1.30;;;5.30;96.70;;;;;;5076473;28;20208;-79
2024/01/23 05:13:26;;;;;;;3.63;1.30;;;5.30;96.70;;;;;;5073508;28;20196;-78
2024/01/23 05:15:53;;;;;;;4.47;1.70;;;5.30;96.60;;;;;;5080689;28;20632;-76
2024/01/23 05:18:19;;;;;;;4.13;1.40;;;5.30;96.10;;;;;;5085528;28;20585;-77
2024/01/23 05:20:46;;;;;;;6.83;1.50;;;5.30;95.80;;;;;;5077342;28;20210;-77
2024/01/23 05:23:13;;;;;;;3.40;1.43;;;5.30;95.60;;;;;;5081381;28;20197;-77
2024/01/23 05:25:42;;;;;;;5.33;1.80;;;5.30;95.80;;;;;;5083775;28;20722;-77
2024/01/23 05:28:09;;;;;;;4.83;1.43;;;5.30;95.60;;;;;;5077437;28;20222;-77
2024/01/23 05:30:37;;;;;;;3.00;2.00;;;5.30;95.60;;;;;;5079135;28;20835;-87
2024/01/23 05:33:04;;;;;;;3.90;1.50;;;5.30;95.70;;;;;;5066637;28;20220;-77
2024/01/23 05:35:34;;;;;;;5.47;1.93;;;5.30;95.90;;;;;;5076150;28;20201;-76
2024/01/23 05:38:09;;;;;;;4.27;1.60;;;5.30;96.00;;;;;;5080706;28;20685;-76
2024/01/23 05:40:35;;;;;;;4.53;1.57;;;5.30;96.10;;;;;;5086192;28;20205;-77
2024/01/23 05:43:02;;;;;;;3.77;1.30;;;5.20;96.40;;;;;;5082987;28;20199;-77
2024/01/23 05:45:29;;;;;;;3.33;1.40;;;5.20;96.70;;;;;;5077563;28;20204;-80
2024/01/23 05:47:57;;;;;;;4.20;1.50;;;5.30;96.60;;;;;;5087119;28;20200;-77
2024/01/23 05:50:25;;;;;;;4.07;1.57;;;5.30;96.50;;;;;;5080520;28;20200;-80
2024/01/23 05:52:53;;;;;;;4.43;1.50;;;5.30;96.70;;;;;;5076982;28;20193;-77
2024/01/23 05:55:20;;;;;;;6.40;1.57;;;5.30;96.40;;;;;;5083601;28;20200;-79
2024/01/23 05:57:46;;;;;;;4.97;1.83;;;5.30;96.70;;;;;;5089032;28;20228;-80
2024/01/23 06:00:14;;;;;;;4.17;1.60;;;5.20;96.60;;;;;;5074779;28;20212;-79
2024/01/23 06:02:41;;;;;;;5.07;2.00;;;5.30;96.50;;;;;;5081039;28;20189;-81
2024/01/23 06:05:09;;;;;;;3.17;1.60;;;5.30;96.50;;;;;;5081320;28;20220;-79
2024/01/23 06:07:41;;;;;;;4.20;1.37;;;5.30;96.40;;;;;;5078077;28;20649;-80
2024/01/23 06:10:10;;;;;;;6.60;1.60;;;5.40;96.40;;;;;;5078094;28;20291;-79
2024/01/23 06:12:36;;;;;;;4.37;1.70;;;5.40;96.20;;;;;;5081241;28;20192;-81
2024/01/23 06:15:04;;;;;;;3.53;1.50;;;5.50;95.60;;;;;;5078999;28;20193;-80
2024/01/23 06:17:33;;;;;;;5.63;1.70;;;5.50;95.60;;;;;;5086889;28;20516;-80
2024/01/23 06:20:01;;;;;;;4.67;1.47;;;5.50;95.60;;;;;;5078297;28;20209;-80
2024/01/23 06:22:29;;;;;;;5.33;2.10;;;5.50;95.40;;;;;;5084020;28;20200;-80
2024/01/23 06:25:03;;;;;;;4.83;1.40;;;5.70;95.20;;;;;;5086390;28;20223;-79
2024/01/23 06:30:13;;;;;;;3.00;1.40;;;5.70;95.00;;;;;;5083990;28;20715;-79
2024/01/23 06:32:40;;;;;;;5.13;1.87;;;5.70;94.70;;;;;;5092054;28;20200;-80
2024/01/23 06:35:08;;;;;;;5.23;1.33;;;5.70;94.50;;;;;;5085570;28;20199;-80
2024/01/23 06:37:36;;;;;;;5.37;1.50;;;5.80;94.30;;;;;;5083703;28;20299;-81
2024/01/23 06:40:04;;;;;;;7.80;1.60;;;5.80;94.00;;;;;;5081760;28;20204;-83
2024/01/23 06:42:32;;;;;;;6.13;1.60;;;5.80;93.90;;;;;;5084707;28;20199;-80
2024/01/23 06:45:00;;;;;;;3.63;1.50;;;5.80;93.60;;;;;;5085189;28;20200;-76
2024/01/23 06:47:27;;;;;;;4.50;1.63;;;5.90;93.00;;;;;;5082092;28;20310;-78
2024/01/23 06:49:54;;;;;;;5.83;1.60;;;5.90;92.90;;;;;;5079588;28;20212;-77
2024/01/23 06:52:20;;;;;;;4.00;1.50;;;5.90;93.00;;;;;;5086208;28;20197;-77
2024/01/23 06:54:48;;;;;;;3.03;1.53;;;5.90;92.60;;;;;;5090597;28;20567;-77
2024/01/23 06:57:15;;;;;;;6.33;1.40;;;5.90;92.70;;;;;;5089376;28;20196;-76
2024/01/23 06:59:42;;;;;;;5.70;1.43;;;5.90;92.90;;;;;;5086012;28;20197;-77
2024/01/23 07:02:10;;;;;;;6.77;1.70;;;5.90;93.00;;;;;;5083055;28;20200;-77
2024/01/23 07:04:37;;;;;;;5.97;2.00;;;5.90;93.10;;;;;;5079584;28;20217;-78
2024/01/23 07:07:04;;;;;;;6.60;1.60;;;5.90;93.50;;;;;;5082858;28;20207;-77
2024/01/23 07:09:31;;;;;;;4.43;1.60;;;5.90;94.00;;;;;;5085958;28;20202;-77
2024/01/23 07:11:59;;;;;;;3.43;1.40;;;5.90;94.30;;;;;;5081027;28;20216;-79
2024/01/23 07:14:26;;;;;;;4.50;1.63;;;5.80;95.30;;;;;;5079961;28;20206;-81
2024/01/23 07:16:52;;;;;;;6.60;1.67;;;5.80;95.20;;;;;;5085070;28;20210;-79
2024/01/23 07:19:19;;;;;;;6.13;1.80;;;5.80;95.20;;;;;;5081385;28;20231;-81
2024/01/23 07:21:46;;;;;;;5.60;2.20;;;5.70;95.20;;;;;;5084372;28;20825;-78
2024/01/23 07:24:13;;;;;;;5.47;1.70;;;5.80;95.20;;;;;;5088583;28;20576;-77
2024/01/23 07:26:40;;;;;;;6.77;1.80;;;5.70;95.20;;;;;;5078384;28;20197;-78
2024/01/23 07:29:08;;;;;;;6.60;1.77;;;5.70;95.20;;;;;;5086608;28;20200;-75
2024/01/23 07:31:35;;;;;;;6.33;2.03;;;5.70;95.20;;;;;;5078281;28;20189;-78
2024/01/23 07:34:02;;;;;;;4.47;1.50;;;5.60;95.20;;;;;;5082113;28;20201;-79
2024/01/23 07:36:29;;;;;;;2.77;1.60;;;5.70;95.20;;;;;;5086464;28;20292;-78
2024/01/23 07:38:56;;;;;;;2.70;1.60;;;5.80;95.20;;;;;;5078533;28;20225;-76
2024/01/23 07:41:25;;;;;;;4.47;1.47;;;5.70;95.20;;;;;;5079073;28;20206;-76
2024/01/23 07:43:52;;;;;;;4.47;1.40;;;5.60;95.70;;;;;;5082252;28;20207;-75
2024/01/23 07:46:22;;;;;;;3.43;1.57;;;5.50;96.40;;;;;;5082351;28;20201;-78
2024/01/23 07:48:49;;;;;;;4.27;1.60;;;5.50;96.40;;;;;;5086052;28;20204;-77
2024/01/23 07:51:47;;;;;;;3.83;1.60;;;5.50;96.50;;;;;;5085678;28;20201;-78
2024/01/23 07:54:15;;;;;;;6.73;1.50;;;5.50;96.90;;;;;;5081935;28;20211;-74
2024/01/23 07:56:42;;;;;;;3.27;1.53;;;5.40;97.40;;;;;;5079999;28;20204;-75
2024/01/23 07:59:09;;;;;;;11.60;1.93;;;5.30;97.70;;;;;;5083430;28;20229;-75
2024/01/23 08:01:38;;;;;;;7.17;1.80;;;5.20;98.30;;;;;;5081486;28;20340;-75
2024/01/23 08:04:06;;;;;;;4.57;1.83;;;5.20;98.50;;;;;;5087183;28;20300;-78
2024/01/23 08:06:33;;;;;;;3.13;1.80;;;5.30;98.60;;;;;;5083595;28;20305;-78
2024/01/23 08:09:00;;;;;;;3.47;1.50;;;5.20;98.60;;;;;;5087849;28;20587;-79
2024/01/23 08:11:27;;;;;;;3.37;1.63;;;5.20;98.20;;;;;;5082678;28;20534;-77
2024/01/23 08:13:53;;;;;;;3.47;1.40;;;5.20;98.50;;;;;;5081143;28;20212;-75
2024/01/23 08:16:20;;;;;;;3.93;1.40;;;5.20;99.00;;;;;;5080940;28;20299;-82
2024/01/23 08:18:49;;;;;;;4.10;1.40;;;5.20;98.80;;;;;;5088364;28;20227;-75
2024/01/23 08:21:17;;;;;;;3.70;1.33;;;5.10;99.00;;;;;;5080922;28;20197;-76
2024/01/23 08:23:43;;;;;;;3.83;1.10;;;4.90;99.80;;;;;;5079022;28;20198;-76
2024/01/23 08:26:10;;;;;;;1.97;1.00;;;4.80;99.90;;;;;;5086908;28;20278;-76
2024/01/23 08:28:36;;;;;;;4.80;1.40;;;4.80;99.90;;;;;;5080096;28;20553;-78
2024/01/23 08:31:05;;;;;;;1.80;1.00;;;4.70;99.90;;;;;;5082559;28;20197;-76
2024/01/23 08:33:31;;;;;;;0.90;0.80;;;4.60;99.90;;;;;;5085532;28;20188;-76
2024/01/23 08:36:00;;;;;;;1.17;0.77;;;4.60;99.90;;;;;;5085433;28;20204;-78
2024/01/23 08:38:27;;;;;;;2.77;1.03;;;4.70;99.90;;;;;;5077931;28;20268;-78
2024/01/23 08:43:35;;;;;;;3.47;1.47;;;4.60;99.90;;;;;;5085115;28;20212;-76
2024/01/23 08:46:01;;;;;;;5.20;1.13;;;4.50;99.90;;;;;;5087130;28;20201;-76
2024/01/23 08:48:29;;;;;;;4.37;1.37;;;4.50;99.90;;;;;;5083722;28;20196;-76
2024/01/23 08:50:56;;;;;;;4.63;1.43;;;4.50;99.90;;;;;;5078360;28;20216;-76
2024/01/23 08:53:24;;;;;;;4.13;1.30;;;4.50;99.90;;;;;;5082713;28;20201;-77
2024/01/23 08:55:51;;;;;;;1.97;1.07;;;4.50;99.90;;;;;;5082691;28;20661;-77
2024/01/23 08:58:18;;;;;;;2.50;1.00;;;4.40;99.90;;;;;;5085503;28;20308;-77
2024/01/23 09:00:45;;;;;;;1.27;1.03;;;4.40;99.90;;;;;;5085225;28;20192;-77
2024/01/23 09:03:11;;;;;;;2.53;0.93;;;4.40;99.90;;;;;;5085707;28;20536;-78
2024/01/23 09:05:38;;;;;;;1.53;1.30;;;4.40;99.90;;;;;;5080456;28;20219;-77
2024/01/23 09:08:06;;;;;;;3.73;1.33;;;4.30;99.90;;;;;;5087651;28;20668;-78
2024/01/23 09:10:34;;;;;;;2.10;1.10;;;4.30;99.90;;;;;;5079759;28;20680;-78
2024/01/23 09:13:00;;;;;;;3.40;1.20;;;4.30;99.90;;;;;;5079197;28;20207;-79
2024/01/23 09:15:27;;;;;;;1.47;1.10;;;4.30;99.90;;;;;;5090301;28;20196;-78
2024/01/23 09:17:54;;;;;;;3.53;1.50;;;4.20;99.90;;;;;;5087181;28;20201;-78
2024/01/23 09:20:21;;;;;;;1.87;1.20;;;4.20;99.90;;;;;;5082326;28;20196;-78
2024/01/23 09:22:49;;;;;;;3.10;1.43;;;4.10;99.90;;;;;;5083636;28;20289;-77
2024/01/23 09:25:16;;;;;;;1.53;1.13;;;4.20;99.90;;;;;;5085904;28;20209;-77
2024/01/23 09:27:44;;;;;;;1.97;1.30;;;4.20;99.90;;;;;;5077741;28;20212;-77
2024/01/23 09:30:12;;;;;;;1.57;1.10;;;4.20;99.90;;;;;;5086733;28;20214;-77
2024/01/23 09:32:39;;;;;;;2.53;1.37;;;4.20;99.90;;;;;;5078631;28;20745;-78
2024/01/23 09:35:07;;;;;;;1.30;1.20;;;4.30;99.90;;;;;;5081638;28;20673;-77
2024/01/23 09:37:34;;;;;;;2.70;1.43;;;4.30;99.90;;;;;;5077537;28;20215;-77
2024/01/23 09:40:01;;;;;;;2.93;1.40;;;4.30;99.90;;;;;;5077629;28;20220;-77
2024/01/23 09:42:29;;;;;;;2.20;1.30;;;4.30;99.90;;;;;;5086136;28;21468;-78
2024/01/23 09:44:58;;;;;;;3.40;1.53;;;4.40;99.90;;;;;;5074936;28;20945;-77
2024/01/23 09:47:25;;;;;;;4.67;1.83;;;4.40;99.90;;;;;;5081188;28;20200;-77
2024/01/23 09:49:53;;;;;;;3.27;1.57;;;4.60;99.90;;;;;;5084836;28;20201;-77
2024/01/23 09:52:21;;;;;;;3.57;1.40;;;4.70;99.90;;;;;;5075789;28;20216;-77
2024/01/23 09:54:48;;;;;;;4.27;1.40;;;5.10;99.90;;;;;;5087821;28;20197;-77
2024/01/23 09:57:15;;;;;;;2.87;1.50;;;5.50;99.90;;;;;;5074474;28;20201;-79
2024/01/23 09:59:45;;;;;;;2.87;1.60;;;5.50;99.90;;;;;;5084048;28;20220;-82
2024/01/23 10:02:16;;;;;;;4.55;1.20;;;6.10;99.90;;;;;;5081199;28;20205;-79
2024/01/23 10:04:45;;;;;;;2.92;1.45;;;6.80;99.00;;;;;;5074953;28;20285;-80
2024/01/23 10:07:12;;;;;;;4.75;1.80;;;7.20;96.90;;;;;;5082776;28;20200;-78
2024/01/23 10:09:49;;;;;;;4.93;1.83;;;7.40;95.60;;;;;;5083570;28;20204;-84
2024/01/23 10:12:16;;;;;;;5.50;1.77;;;7.20;95.50;;;;;;5074026;28;20201;-79
2024/01/23 10:14:43;;;;;;;7.63;2.00;;;7.40;95.80;;;;;;5082382;28;20199;-78
2024/01/23 10:17:10;;;;;;;4.32;1.60;;;7.40;95.60;;;;;;5076402;28;20651;-81
2024/01/23 10:19:39;;;;;;;4.15;1.80;;;7.10;96.10;;;;;;5079758;28;20216;-79
2024/01/23 10:22:05;;;;;;;3.88;1.48;;;6.90;96.90;;;;;;5080630;28;20205;-81
2024/01/23 10:24:33;;;;;;;2.80;1.80;;;6.60;97.20;;;;;;5082777;28;20200;-79
2024/01/23 10:27:00;;;;;;;3.70;1.73;;;6.50;98.00;;;;;;5081970;28;20193;-80
2024/01/23 10:29:26;;;;;;;3.92;1.40;;;6.50;98.50;;;;;;5084619;28;20196;-79
2024/01/23 10:31:53;;;;;;;6.13;1.70;;;6.50;98.70;;;;;;5078131;28;20205;-79
2024/01/23 10:34:20;;;;;;;3.95;1.50;;;6.50;98.50;;;;;;5088507;28;20196;-78
2024/01/23 10:36:55;;;;;;;4.78;1.40;;;6.70;98.00;;;;;;5073624;28;20204;-78
2024/01/23 10:39:22;;;;;;;2.90;1.27;;;6.60;97.50;;;;;;5078653;28;20248;-79
2024/01/23 10:41:52;;;;;;;7.00;1.42;;;6.50;97.30;;;;;;5083875;28;20200;-78
2024/01/23 10:44:31;;;;;;;3.80;1.30;;;6.50;97.70;;;;;;5083583;28;20193;-78
2024/01/23 10:46:57;;;;;;;5.72;1.48;;;6.40;98.00;;;;;;5074977;28;20275;-77
2024/01/23 10:49:24;;;;;;;6.28;1.52;;;6.30;98.00;;;;;;5087799;28;20653;-79
2024/01/23 10:51:56;;;;;;;5.72;1.88;;;6.40;98.30;;;;;;5081883;28;20216;-78
2024/01/23 10:54:28;;;;;;;4.18;1.30;;;6.40;98.00;;;;;;5077483;28;20370;-79
2024/01/23 10:56:57;;;;;;;3.95;1.58;;;6.50;97.30;;;;;;5085836;28;20211;-80
2024/01/23 10:59:34;;;;;;;3.60;1.40;;;6.50;97.70;;;;;;5081330;28;20250;-77
2024/01/23 11:02:29;;;;;;;4.80;1.45;;;6.70;98.10;;;;;;5083141;28;20211;-78
2024/01/23 11:09:18;;;;;;;4.53;1.60;;;7.30;96.30;;;;;;5028712;28;20231;-79
2024/01/23 11:11:54;;;;;;;5.90;1.80;;;7.30;95.60;;;;;;5085598;28;20208;-79
2024/01/23 11:14:30;;;;;;;5.30;1.83;;;7.20;95.80;;;;;;5083941;28;20277;-78
2024/01/23 11:17:13;;;;;;;1.92;1.20;;;7.20;95.90;;;;;;5087699;28;20292;-78
2024/01/23 11:19:42;;;;;;;3.13;1.67;;;7.50;95.60;;;;;;5084929;28;20220;-78
2024/01/23 11:22:09;;;;;;;4.70;1.30;;;7.80;95.70;;;;;;5075701;28;20197;-80
2024/01/23 11:24:42;;;;;;;3.55;1.98;;;8.10;94.60;;;;;;5083868;28;20192;-77
2024/01/23 11:27:09;;;;;;;6.65;1.58;;;8.40;94.60;;;;;;5086108;28;20608;-79
2024/01/23 11:29:36;;;;;;;4.25;1.92;;;8.60;92.60;;;;;;5087704;28;20193;-78
2024/01/23 11:32:17;;;;;;;4.75;1.50;;;8.40;92.30;;;;;;5085325;28;20283;-77
2024/01/23 11:34:44;;;;;;;3.70;2.20;;;8.20;92.60;;;;;;5085272;28;20748;-77
2024/01/23 11:37:55;;;;;;;3.72;1.73;;;8.10;92.80;;;;;;5084132;28;20210;-78
2024/01/23 11:40:37;;;;;;;4.88;1.67;;;7.80;93.20;;;;;;5086684;28;20229;-79
2024/01/23 11:43:08;;;;;;;4.50;1.50;;;7.80;93.10;;;;;;5082129;28;20193;-78
2024/01/23 11:45:39;;;;;;;5.22;2.08;;;7.80;93.50;;;;;;5080723;28;20300;-80
2024/01/23 11:48:08;;;;;;;5.72;1.80;;;7.90;92.80;;;;;;5089323;28;20569;-81
2024/01/23 11:50:35;;;;;;;6.90;1.98;;;7.90;92.60;;;;;;5080294;28;20204;-79
2024/01/23 11:53:10;;;;;;;5.40;2.00;;;8.00;91.90;;;;;;5086970;28;20210;-80
2024/01/23 11:55:38;;;;;;;5.85;1.70;;;8.00;90.60;;;;;;5080428;28;20192;-80
2024/01/23 11:58:05;;;;;;;5.68;1.88;;;7.90;90.90;;;;;;5085269;28;20196;-81
2024/01/23 12:00:32;;;;;;;5.65;2.33;;;7.80;91.10;;;;;;5086638;28;20227;-80
2024/01/23 12:02:58;;;;;;;5.22;1.90;;;7.60;91.40;;;;;;5085672;28;20200;-81
2024/01/23 12:05:25;;;;;;;5.57;1.90;;;7.60;91.90;;;;;;5085599;28;20220;-81
2024/01/23 12:07:52;;;;;;;5.35;1.90;;;7.60;91.60;;;;;;5082720;28;20201;-80
2024/01/23 12:10:20;;;;;;;5.68;1.90;;;7.50;91.70;;;;;;5083052;28;20305;-80
2024/01/23 12:12:52;;;;;;;5.30;1.95;;;7.50;91.50;;;;;;5080179;28;20203;-80
2024/01/23 12:15:27;;;;;;;7.75;1.70;;;7.40;91.60;;;;;;5081213;28;20197;-80
2024/01/23 12:18:01;;;;;;;8.10;1.98;;;7.30;91.90;;;;;;5087750;28;20287;-80
2024/01/23 12:20:28;;;;;;;6.07;1.83;;;7.10;92.10;;;;;;5087169;28;20691;-79
2024/01/23 12:22:54;;;;;;;5.65;1.95;;;7.30;92.40;;;;;;5080857;28;20564;-77
2024/01/23 12:25:22;;;;;;;3.97;1.65;;;7.40;91.90;;;;;;5085119;28;20204;-81
2024/01/23 12:27:51;;;;;;;7.28;1.73;;;7.50;91.40;;;;;;5083920;28;20197;-78
2024/01/23 12:30:20;;;;;;;6.00;1.65;;;7.60;92.20;;;;;;5087489;28;20201;-81
2024/01/23 12:32:48;;;;;;;4.72;1.77;;;7.80;91.60;;;;;;5087607;28;20204;-81
2024/01/23 12:35:15;;;;;;;5.43;1.95;;;8.00;91.30;;;;;;5083700;28;20193;-80
2024/01/23 12:37:42;;;;;;;5.57;1.83;;;8.20;90.70;;;;;;5085597;28;20739;-82
2024/01/23 12:40:10;;;;;;;4.90;1.83;;;8.20;90.10;;;;;;5083662;28;20271;-81
2024/01/23 12:42:44;;;;;;;8.77;2.10;;;8.20;88.40;;;;;;5078585;28;20215;-78
2024/01/23 12:45:13;;;;;;;6.00;1.92;;;8.10;87.90;;;;;;5085249;28;20737;-81
2024/01/23 12:47:41;;;;;;;4.53;1.90;;;8.20;87.90;;;;;;5079765;28;20201;-80
2024/01/23 12:50:17;;;;;;;6.72;1.65;;;8.30;87.70;;;;;;5084493;28;20197;-81
2024/01/23 12:52:45;;;;;;;4.25;1.42;;;8.30;86.00;;;;;;5084509;28;20196;-80
2024/01/23 12:55:13;;;;;;;5.68;1.92;;;8.20;85.20;;;;;;5084038;28;20204;-80
2024/01/23 12:57:40;;;;;;;8.00;1.88;;;8.00;87.20;;;;;;5081807;28;20197;-81
2024/01/23 13:00:08;;;;;;;5.82;1.48;;;7.90;87.80;;;;;;5084217;28;20224;-79
2024/01/23 13:02:37;;;;;;;4.22;1.80;;;7.90;88.90;;;;;;5082878;28;20197;-77
2024/01/23 13:05:03;;;;;;;7.80;1.85;;;8.00;87.10;;;;;;5089560;28;20224;-79
2024/01/23 13:07:30;;;;;;;5.13;1.83;;;8.00;85.30;;;;;;5087091;28;20196;-77
2024/01/23 13:12:38;;;;;;;3.67;1.80;;;8.20;85.00;;;;;;5079795;28;20602;-79
2024/01/23 13:15:15;;;;;;;5.80;1.90;;;8.20;84.70;;;;;;5089935;28;20672;-78